Time;durP1;ratioP1;P1;durP2;ratioP2;P2;SDS_P1;SDS_P2;PMS_P1;PMS_P2;Temp;Humidity;BMP_temperature;BMP_pressure;BME280_temperature;BME280_humidity;BME280_pressure;Samples;Min_cycle;Max_cycle;Signal;HPM_P1;HPM_P2
2021/08/11 00:00:08;;;;;;;;;;;;;;;15.18;84.48;101787.00;5057522;28;19925;-49
2021/08/11 00:02:35;;;;;;;;;;;;;;;15.16;84.87;101791.56;5075384;28;19925;-47
2021/08/11 00:05:02;;;;;;;;;;;;;;;15.14;85.13;101795.28;5055692;28;19924;-50
2021/08/11 00:07:28;;;;;;;;;;;;;;;15.15;84.70;101783.72;5054840;28;19931;-48
2021/08/11 00:09:55;;;;;;;;;;;;;;;15.11;85.22;101787.56;5075222;28;19996;-47
2021/08/11 00:12:22;;;;;;;;;;;;;;;15.09;85.08;101790.28;5075428;28;19932;-46
2021/08/11 00:14:49;;;;;;;;;;;;;;;14.97;85.24;101794.66;5074374;28;19931;-48
2021/08/11 00:17:16;;;;;;;;;;;;;;;14.97;85.10;101785.84;5073594;28;20022;-47
2021/08/11 00:19:42;;;;;;;;;;;;;;;14.98;85.39;101788.41;5072311;28;19931;-47
2021/08/11 00:22:09;;;;;;;;;;;;;;;14.98;85.30;101791.06;5056720;28;19924;-45
2021/08/11 00:24:36;;;;;;;;;;;;;;;14.93;85.82;101794.94;5057346;28;20344;-47
2021/08/11 00:27:02;;;;;;;;;;;;;;;14.86;85.62;101790.09;5074890;28;19924;-45
2021/08/11 00:29:29;;;;;;;;;;;;;;;14.92;84.95;101787.97;5057022;28;19924;-47
2021/08/11 00:31:55;;;;;;;;;;;;;;;14.93;84.55;101782.56;5056743;28;19932;-47
2021/08/11 00:34:22;;;;;;;;;;;;;;;14.88;83.61;101785.50;5072277;28;19928;-46
2021/08/11 00:36:49;;;;;;;;;;;;;;;14.91;83.40;101792.41;5072549;28;19956;-50
2021/08/11 00:39:15;;;;;;;;;;;;;;;14.86;83.82;101787.44;5074483;28;19991;-46
2021/08/11 00:41:45;;;;;;;;;;;;;;;14.81;83.68;101794.84;5056736;28;19924;-48
2021/08/11 00:44:12;;;;;;;;;;;;;;;14.84;83.77;101789.31;5074467;28;19936;-46
2021/08/11 00:46:40;;;;;;;;;;;;;;;14.66;85.12;101783.50;5072234;28;19928;-49
2021/08/11 00:49:07;;;;;;;;;;;;;;;14.70;85.19;101792.91;5071769;28;19951;-49
2021/08/11 00:51:34;;;;;;;;;;;;;;;14.67;84.81;101793.13;5056986;28;19974;-45
2021/08/11 00:54:00;;;;;;;;;;;;;;;14.60;85.55;101793.59;5056656;28;19929;-46
2021/08/11 00:56:27;;;;;;;;;;;;;;;14.65;85.96;101797.66;5074357;28;19928;-46
2021/08/11 00:58:54;;;;;;;;;;;;;;;14.66;85.62;101799.38;5056758;28;19928;-45
2021/08/11 01:01:20;;;;;;;;;;;;;;;14.53;85.86;101791.38;5056553;28;20400;-48
2021/08/11 01:03:47;;;;;;;;;;;;;;;14.53;85.61;101798.47;5039728;28;19936;-48
2021/08/11 01:06:14;;;;;;;;;;;;;;;14.44;85.31;101788.47;5073124;28;19970;-44
2021/08/11 01:08:40;;;;;;;;;;;;;;;14.42;86.13;101798.34;5071160;28;19924;-44
2021/08/11 01:11:07;;;;;;;;;;;;;;;14.36;86.85;101795.13;5054682;28;19964;-46
2021/08/11 01:13:33;;;;;;;;;;;;;;;14.35;86.04;101798.72;5073443;28;19928;-45
2021/08/11 01:16:00;;;;;;;;;;;;;;;14.35;85.84;101795.25;5073533;28;20298;-45
2021/08/11 01:18:27;;;;;;;;;;;;;;;14.33;86.05;101797.16;5073742;28;19925;-46
2021/08/11 01:20:56;;;;;;;;;;;;;;;14.34;85.36;101796.19;5056239;28;19932;-45
2021/08/11 01:23:24;;;;;;;;;;;;;;;14.32;85.78;101801.59;5054874;28;19928;-57
2021/08/11 01:25:52;;;;;;;;;;;;;;;14.25;86.25;101797.66;5053936;28;19925;-57
2021/08/11 01:28:37;;;;;;;;;;;;;;;14.32;86.56;101804.22;5055703;28;19974;-57
2021/08/11 01:31:04;;;;;;;;;;;;;;;14.29;86.47;101807.09;5073917;28;19943;-57
2021/08/11 01:33:38;;;;;;;;;;;;;;;14.31;86.97;101810.47;5073842;28;19932;-57
2021/08/11 01:36:07;;;;;;;;;;;;;;;14.29;85.97;101804.44;5073865;28;19924;-57
2021/08/11 01:38:34;;;;;;;;;;;;;;;14.23;86.16;101812.75;5056206;28;19978;-57
2021/08/11 01:41:01;;;;;;;;;;;;;;;14.24;85.18;101811.81;5073551;28;19924;-57
2021/08/11 01:43:29;;;;;;;;;;;;;;;14.15;84.83;101815.94;5039561;28;20191;-57
2021/08/11 01:45:56;;;;;;;;;;;;;;;14.10;85.26;101817.19;5056428;28;19928;-57
2021/08/11 01:48:27;;;;;;;;;;;;;;;13.99;85.98;101810.78;5055900;28;19924;-57
2021/08/11 01:50:54;;;;;;;;;;;;;;;14.01;85.84;101813.31;5055916;28;19931;-57
2021/08/11 01:53:21;;;;;;;;;;;;;;;14.03;86.08;101809.63;5055900;28;19924;-56
2021/08/11 01:55:49;;;;;;;;;;;;;;;13.99;85.67;101807.28;5055448;28;19925;-57
2021/08/11 01:58:16;;;;;;;;;;;;;;;13.93;86.62;101803.22;5052893;28;20388;-57
2021/08/11 02:00:42;;;;;;;;;;;;;;;13.97;86.21;101807.38;5054720;28;20334;-57
2021/08/11 02:03:09;;;;;;;;;;;;;;;13.94;86.33;101801.44;5055631;28;20346;-57
2021/08/11 02:05:36;;;;;;;;;;;;;;;13.91;86.50;101807.78;5055702;28;19968;-57
2021/08/11 02:08:03;;;;;;;;;;;;;;;13.80;86.88;101803.16;5055474;28;19925;-47
2021/08/11 02:10:30;;;;;;;;;;;;;;;13.88;86.75;101801.81;5072968;28;20019;-45
2021/08/11 02:12:56;;;;;;;;;;;;;;;13.80;87.13;101799.69;5017806;28;19932;-46
2021/08/11 02:15:23;;;;;;;;;;;;;;;13.82;86.47;101803.06;5052999;28;19929;-49
2021/08/11 02:17:50;;;;;;;;;;;;;;;13.89;86.22;101799.06;5072865;28;19924;-45
2021/08/11 02:20:17;;;;;;;;;;;;;;;13.71;86.37;101802.91;5072716;28;19931;-45
2021/08/11 02:22:44;;;;;;;;;;;;;;;13.73;86.02;101801.88;5054739;28;20022;-44
2021/08/11 02:25:11;;;;;;;;;;;;;;;13.71;86.07;101800.28;5070298;28;19951;-44
2021/08/11 02:27:43;;;;;;;;;;;;;;;13.69;85.29;101795.91;5036788;28;19924;-45
2021/08/11 02:30:12;;;;;;;;;;;;;;;13.68;85.47;101794.22;5072689;28;19931;-45
2021/08/11 02:32:49;;;;;;;;;;;;;;;13.60;85.98;101807.06;5072756;28;19924;-47
2021/08/11 02:35:24;;;;;;;;;;;;;;;13.56;85.52;101797.63;5072664;28;20350;-48
2021/08/11 02:38:00;;;;;;;;;;;;;;;13.49;86.17;101796.31;5054269;28;19932;-45
2021/08/11 02:40:39;;;;;;;;;;;;;;;13.47;85.91;101791.13;5053160;28;19925;-50
2021/08/11 02:43:05;;;;;;;;;;;;;;;13.59;86.07;101794.78;5067411;28;19940;-47
2021/08/11 02:45:32;;;;;;;;;;;;;;;13.58;86.81;101795.75;5071564;28;19928;-49
2021/08/11 02:47:59;;;;;;;;;;;;;;;13.51;87.08;101794.41;5054811;28;19971;-47
2021/08/11 02:50:26;;;;;;;;;;;;;;;13.39;87.31;101792.53;5038440;28;19931;-49
2021/08/11 02:52:53;;;;;;;;;;;;;;;13.53;86.57;101785.47;5071100;28;19928;-48
2021/08/11 02:55:20;;;;;;;;;;;;;;;13.42;86.65;101795.03;5052270;28;19925;-48
2021/08/11 02:57:46;;;;;;;;;;;;;;;13.43;87.37;101792.28;5053994;28;19947;-47
2021/08/11 03:00:13;;;;;;;;;;;;;;;13.42;87.68;101795.84;5038004;28;19925;-49
2021/08/11 03:02:40;;;;;;;;;;;;;;;13.49;87.12;101796.31;5035705;28;19974;-48
2021/08/11 03:05:07;;;;;;;;;;;;;;;13.33;87.54;101802.53;5052363;28;19931;-45
2021/08/11 03:07:33;;;;;;;;;;;;;;;13.35;87.62;101800.66;5072434;28;20303;-49
2021/08/11 03:10:00;;;;;;;;;;;;;;;13.32;87.57;101803.47;5072767;28;20383;-46
2021/08/11 03:12:27;;;;;;;;;;;;;;;13.36;86.76;101801.50;5054814;28;20333;-57
2021/08/11 03:14:53;;;;;;;;;;;;;;;13.27;86.80;101808.19;5070538;28;19934;-57
2021/08/11 03:17:23;;;;;;;;;;;;;;;13.32;86.52;101797.31;5053560;28;20453;-57
2021/08/11 03:19:50;;;;;;;;;;;;;;;13.31;86.48;101804.41;5072626;28;19924;-57
2021/08/11 03:22:16;;;;;;;;;;;;;;;13.28;86.68;101804.59;5071877;28;20024;-57
2021/08/11 03:24:43;;;;;;;;;;;;;;;13.24;86.37;101808.38;5071004;28;19925;-57
2021/08/11 03:27:10;;;;;;;;;;;;;;;13.29;86.32;101810.72;5071802;28;19925;-49
2021/08/11 03:29:36;;;;;;;;;;;;;;;13.22;86.24;101812.06;5072225;28;19924;-46
2021/08/11 03:32:03;;;;;;;;;;;;;;;13.16;87.29;101806.19;5072250;28;19978;-47
2021/08/11 03:34:30;;;;;;;;;;;;;;;13.11;88.26;101818.81;5072203;28;20113;-46
2021/08/11 03:36:56;;;;;;;;;;;;;;;13.04;88.42;101814.03;5070692;28;19935;-47
2021/08/11 03:39:23;;;;;;;;;;;;;;;12.97;89.07;101811.75;5035300;28;19936;-51
2021/08/11 03:41:49;;;;;;;;;;;;;;;13.01;88.59;101810.63;5053083;28;19981;-47
2021/08/11 03:44:16;;;;;;;;;;;;;;;13.05;88.20;101813.06;5072256;28;20276;-50
2021/08/11 03:46:43;;;;;;;;;;;;;;;13.05;88.16;101808.66;5037714;28;19974;-46
2021/08/11 03:49:09;;;;;;;;;;;;;;;13.02;88.50;101804.41;5055064;28;19956;-49
2021/08/11 03:51:36;;;;;;;;;;;;;;;13.00;88.63;101808.06;5041315;28;19924;-46
2021/08/11 03:54:02;;;;;;;;;;;;;;;13.01;88.37;101801.84;5075938;28;20260;-57
2021/08/11 03:56:29;;;;;;;;;;;;;;;13.09;87.61;101802.25;5058100;28;19931;-57
2021/08/11 03:58:56;;;;;;;;;;;;;;;13.08;87.52;101802.34;5055774;28;20402;-57
2021/08/11 04:01:22;;;;;;;;;;;;;;;13.03;88.14;101797.31;5056595;28;20465;-57
2021/08/11 04:03:49;;;;;;;;;;;;;;;13.02;87.95;101799.13;5057940;28;20015;-57
2021/08/11 04:06:16;;;;;;;;;;;;;;;13.08;87.79;101799.69;5075302;28;20309;-57
2021/08/11 04:08:43;;;;;;;;;;;;;;;13.04;87.94;101796.38;5075664;28;19925;-57
2021/08/11 04:11:09;;;;;;;;;;;;;;;12.96;88.34;101794.19;5057638;28;20017;-57
2021/08/11 04:13:36;;;;;;;;;;;;;;;13.10;88.07;101797.78;5074916;28;19924;-48
2021/08/11 04:16:03;;;;;;;;;;;;;;;13.04;88.36;101800.81;5072116;28;19931;-46
2021/08/11 04:18:30;;;;;;;;;;;;;;;13.05;89.25;101806.00;5073513;28;19925;-47
2021/08/11 04:20:56;;;;;;;;;;;;;;;12.97;90.09;101819.66;5074613;28;19998;-44
2021/08/11 04:23:23;;;;;;;;;;;;;;;13.06;90.80;101814.78;5054064;28;19925;-46
2021/08/11 04:25:49;;;;;;;;;;;;;;;13.05;90.56;101819.22;5072182;28;20581;-48
2021/08/11 04:28:16;;;;;;;;;;;;;;;13.05;91.13;101815.69;5074922;28;19925;-44
2021/08/11 04:30:43;;;;;;;;;;;;;;;13.10;91.18;101824.19;5074804;28;19924;-45
2021/08/11 04:33:10;;;;;;;;;;;;;;;13.02;92.28;101814.13;5058997;28;20419;-57
2021/08/11 04:35:37;;;;;;;;;;;;;;;13.04;93.13;101819.31;5041030;28;20446;-59
2021/08/11 04:38:04;;;;;;;;;;;;;;;13.14;93.29;101817.78;5032866;28;19933;-57
2021/08/11 04:40:31;;;;;;;;;;;;;;;13.18;94.17;101812.25;5063483;28;19924;-57
2021/08/11 04:42:57;;;;;;;;;;;;;;;13.30;94.25;101815.06;5062249;28;20384;-58
2021/08/11 04:45:24;;;;;;;;;;;;;;;13.32;94.38;101819.31;5053965;28;20196;-58
2021/08/11 04:47:50;;;;;;;;;;;;;;;13.33;94.74;101815.75;5062129;28;19929;-57
2021/08/11 04:50:17;;;;;;;;;;;;;;;13.48;94.74;101821.03;5054432;28;19924;-57
2021/08/11 04:52:44;;;;;;;;;;;;;;;13.43;94.89;101821.34;5062419;28;20325;-58
2021/08/11 04:55:12;;;;;;;;;;;;;;;13.42;95.41;101817.00;5069213;28;19931;-57
2021/08/11 04:57:39;;;;;;;;;;;;;;;13.47;96.03;101819.34;5070240;28;20383;-58
2021/08/11 05:00:06;;;;;;;;;;;;;;;13.43;95.98;101831.03;5052437;28;19928;-46
2021/08/11 05:02:33;;;;;;;;;;;;;;;13.45;96.22;101831.81;5072699;28;20420;-48
2021/08/11 05:05:00;;;;;;;;;;;;;;;13.49;96.13;101828.88;5068672;28;20398;-47
2021/08/11 05:07:27;;;;;;;;;;;;;;;13.60;96.34;101835.31;5070440;28;20371;-49
2021/08/11 05:09:53;;;;;;;;;;;;;;;13.62;96.44;101836.91;5054863;28;19929;-48
2021/08/11 05:12:20;;;;;;;;;;;;;;;13.67;96.19;101832.19;5053552;28;19929;-51
2021/08/11 05:14:47;;;;;;;;;;;;;;;13.71;96.50;101834.63;5061919;28;19931;-51
2021/08/11 05:17:14;;;;;;;;;;;;;;;13.71;95.94;101832.81;5073881;28;20361;-46
2021/08/11 05:19:40;;;;;;;;;;;;;;;13.78;96.03;101838.56;5070430;28;19958;-46
2021/08/11 05:22:07;;;;;;;;;;;;;;;13.78;95.85;101841.22;5088700;28;19966;-48
2021/08/11 05:24:33;;;;;;;;;;;;;;;13.95;94.87;101842.81;5061570;28;19970;-58
2021/08/11 05:27:00;;;;;;;;;;;;;;;13.94;94.82;101846.41;5073061;28;19924;-58
2021/08/11 05:29:27;;;;;;;;;;;;;;;13.89;95.19;101851.13;5067373;28;19925;-57
2021/08/11 05:31:54;;;;;;;;;;;;;;;13.91;95.92;101855.38;5058421;28;19928;-57
2021/08/11 05:34:20;;;;;;;;;;;;;;;13.92;95.98;101853.56;5065057;28;19931;-47
2021/08/11 05:36:47;;;;;;;;;;;;;;;14.01;95.78;101861.75;5071994;28;19924;-49
2021/08/11 05:39:14;;;;;;;;;;;;;;;14.09;95.71;101855.16;5064654;28;20303;-46
2021/08/11 05:41:41;;;;;;;;;;;;;;;14.23;95.39;101855.09;5063023;28;19929;-44
2021/08/11 05:44:08;;;;;;;;;;;;;;;14.22;94.92;101855.19;5070016;28;20360;-45
2021/08/11 05:46:34;;;;;;;;;;;;;;;14.29;95.16;101860.00;5079241;28;19924;-43
2021/08/11 05:49:02;;;;;;;;;;;;;;;14.38;94.37;101858.53;5075120;28;19977;-46
2021/08/11 05:51:30;;;;;;;;;;;;;;;14.43;95.05;101858.25;5055530;28;20405;-44
2021/08/11 05:53:57;;;;;;;;;;;;;;;14.57;95.40;101862.66;5073464;28;19924;-44
2021/08/11 05:56:24;;;;;;;;;;;;;;;14.51;94.25;101863.91;5073439;28;19980;-45
2021/08/11 05:58:51;;;;;;;;;;;;;;;14.52;94.30;101870.91;5070050;28;19970;-45
2021/08/11 06:01:21;;;;;;;;;;;;;;;14.60;94.23;101871.25;5070872;28;19925;-57
2021/08/11 06:03:48;;;;;;;;;;;;;;;14.62;94.00;101874.63;5054289;28;19966;-57
2021/08/11 06:06:15;;;;;;;;;;;;;;;14.67;93.74;101875.22;5072772;28;19928;-57
2021/08/11 06:08:41;;;;;;;;;;;;;;;14.76;93.87;101884.31;5071870;28;19924;-57
2021/08/11 06:11:08;;;;;;;;;;;;;;;14.85;93.74;101877.59;5073160;28;20014;-58
2021/08/11 06:13:34;;;;;;;;;;;;;;;14.79;92.78;101875.34;5073069;28;19925;-57
2021/08/11 06:16:01;;;;;;;;;;;;;;;14.88;92.57;101870.25;5072556;28;19931;-57
2021/08/11 06:18:28;;;;;;;;;;;;;;;14.93;92.12;101875.25;5073217;28;19954;-57
2021/08/11 06:20:55;;;;;;;;;;;;;;;14.99;93.06;101885.44;5057327;28;20358;-45
2021/08/11 06:23:21;;;;;;;;;;;;;;;15.13;91.96;101878.34;5064916;28;20058;-49
2021/08/11 06:25:48;;;;;;;;;;;;;;;15.23;93.04;101886.53;5063930;28;20380;-58
2021/08/11 06:28:15;;;;;;;;;;;;;;;15.24;93.12;101894.34;5063888;28;19970;-58
2021/08/11 06:30:43;;;;;;;;;;;;;;;15.35;92.92;101894.50;5031626;28;20418;-58
2021/08/11 06:33:10;;;;;;;;;;;;;;;15.45;93.58;101899.16;5065348;28;19981;-58
2021/08/11 06:35:36;;;;;;;;;;;;;;;15.54;90.78;101901.16;5067551;28;20346;-58
2021/08/11 06:38:03;;;;;;;;;;;;;;;15.62;90.99;101904.13;5043663;28;19925;-45
2021/08/11 06:40:30;;;;;;;;;;;;;;;15.65;91.09;101900.41;5063646;28;19967;-58
2021/08/11 06:42:56;;;;;;;;;;;;;;;15.85;91.35;101897.22;5060229;28;19928;-58
2021/08/11 06:45:23;;;;;;;;;;;;;;;15.96;90.58;101898.28;5058177;28;20311;-57
2021/08/11 06:47:50;;;;;;;;;;;;;;;16.11;89.99;101896.34;5061776;28;20468;-58
2021/08/11 06:50:16;;;;;;;;;;;;;;;16.21;90.53;101900.88;5052079;28;19929;-58
2021/08/11 06:52:43;;;;;;;;;;;;;;;16.36;89.58;101904.22;5034121;28;19925;-57
2021/08/11 06:55:11;;;;;;;;;;;;;;;16.52;89.47;101909.25;5051188;28;20372;-50
2021/08/11 06:57:39;;;;;;;;;;;;;;;16.63;88.08;101908.44;5048534;28;19925;-49
2021/08/11 07:00:06;;;;;;;;;;;;;;;16.83;87.86;101914.09;5036315;28;19935;-48
2021/08/11 07:02:33;;;;;;;;;;;;;;;16.87;86.86;101913.72;5072206;28;19946;-49
2021/08/11 07:05:00;;;;;;;;;;;;;;;16.93;86.11;101916.94;5068513;28;19936;-47
2021/08/11 07:07:27;;;;;;;;;;;;;;;17.02;86.29;101916.25;5072370;28;19977;-44
2021/08/11 07:09:54;;;;;;;;;;;;;;;17.14;84.92;101925.94;5072476;28;19925;-49
2021/08/11 07:12:21;;;;;;;;;;;;;;;17.29;84.47;101925.72;5072458;28;19978;-48
2021/08/11 07:14:48;;;;;;;;;;;;;;;17.40;84.59;101920.44;5072564;28;19924;-46
2021/08/11 07:17:15;;;;;;;;;;;;;;;17.53;83.98;101923.84;5072153;28;20403;-49
2021/08/11 07:19:41;;;;;;;;;;;;;;;17.65;83.59;101923.84;5070736;28;19925;-50
2021/08/11 07:22:09;;;;;;;;;;;;;;;17.72;83.25;101919.72;5069209;28;19925;-50
2021/08/11 07:24:36;;;;;;;;;;;;;;;17.90;81.98;101917.41;5074148;28;19924;-51
2021/08/11 07:27:03;;;;;;;;;;;;;;;18.01;82.55;101908.59;5064780;28;20042;-50
2021/08/11 07:29:30;;;;;;;;;;;;;;;18.20;83.18;101910.63;5067766;28;20371;-49
2021/08/11 07:31:56;;;;;;;;;;;;;;;18.38;82.22;101906.50;5059231;28;19928;-49
2021/08/11 07:34:23;;;;;;;;;;;;;;;18.56;80.48;101908.63;5047013;28;19928;-50
2021/08/11 07:36:50;;;;;;;;;;;;;;;18.64;81.39;101902.63;5059661;28;20644;-51
2021/08/11 07:39:16;;;;;;;;;;;;;;;18.77;80.35;101902.47;5061376;28;19928;-50
2021/08/11 07:41:43;;;;;;;;;;;;;;;18.89;80.03;101902.31;5060121;28;20455;-49
2021/08/11 07:44:10;;;;;;;;;;;;;;;19.04;79.54;101905.50;5063977;28;19928;-47
2021/08/11 07:46:36;;;;;;;;;;;;;;;19.24;78.82;101905.66;5062925;28;19935;-48
2021/08/11 07:49:03;;;;;;;;;;;;;;;19.39;77.49;101909.66;5062016;28;19925;-47
2021/08/11 07:51:30;;;;;;;;;;;;;;;19.47;76.52;101910.81;5045203;28;19970;-49
2021/08/11 07:53:56;;;;;;;;;;;;;;;19.61;75.77;101906.97;5060652;28;19932;-48
2021/08/11 07:56:23;;;;;;;;;;;;;;;19.72;76.56;101912.22;5062850;28;19982;-47
2021/08/11 07:58:50;;;;;;;;;;;;;;;19.93;76.20;101914.84;5062405;28;19925;-52
2021/08/11 08:01:16;;;;;;;;;;;;;;;20.16;74.15;101914.63;5062767;28;19932;-51
2021/08/11 08:03:43;;;;;;;;;;;;;;;20.30;73.40;101919.59;5071549;28;19924;-50
2021/08/11 08:06:10;;;;;;;;;;;;;;;20.52;72.66;101913.13;5055724;28;20371;-48
2021/08/11 08:08:37;;;;;;;;;;;;;;;20.67;71.06;101910.91;5060771;28;19928;-48
2021/08/11 08:11:03;;;;;;;;;;;;;;;20.50;70.49;101911.59;5060160;28;20379;-49
2021/08/11 08:13:30;;;;;;;;;;;;;;;20.86;68.96;101907.41;5063968;28;20513;-50
2021/08/11 08:15:57;;;;;;;;;;;;;;;21.06;68.92;101908.19;5061974;28;19928;-49
2021/08/11 08:18:23;;;;;;;;;;;;;;;21.22;67.26;101904.94;5059775;28;19924;-58
2021/08/11 08:20:51;;;;;;;;;;;;;;;21.25;65.84;101896.63;5062601;28;19936;-58
2021/08/11 08:23:18;;;;;;;;;;;;;;;21.40;65.84;101898.84;5063120;28;19933;-58
2021/08/11 08:25:44;;;;;;;;;;;;;;;21.55;66.32;101904.59;5061689;28;19929;-58
2021/08/11 08:28:11;;;;;;;;;;;;;;;21.90;65.83;101903.03;5051166;28;20353;-58
2021/08/11 08:30:44;;;;;;;;;;;;;;;22.08;64.02;101908.44;5057307;28;20299;-50
2021/08/11 08:33:10;;;;;;;;;;;;;;;22.31;64.05;101903.50;5062571;28;19932;-46
2021/08/11 08:35:37;;;;;;;;;;;;;;;22.55;62.34;101905.59;5057400;28;19924;-46
2021/08/11 08:38:04;;;;;;;;;;;;;;;22.32;61.45;101910.53;5055925;28;19968;-45
2021/08/11 08:40:32;;;;;;;;;;;;;;;22.26;61.27;101913.81;5051425;28;20627;-45
2021/08/11 08:42:59;;;;;;;;;;;;;;;22.48;62.60;101917.09;5034485;28;19932;-51
2021/08/11 08:45:26;;;;;;;;;;;;;;;22.81;61.60;101912.00;5052355;28;19987;-50
2021/08/11 08:47:53;;;;;;;;;;;;;;;23.17;60.18;101910.13;5061244;28;19940;-49
2021/08/11 08:50:20;;;;;;;;;;;;;;;23.31;60.87;101908.72;5063656;28;19925;-52
2021/08/11 08:52:46;;;;;;;;;;;;;;;23.45;59.53;101901.91;5061903;28;19974;-50
2021/08/11 08:55:15;;;;;;;;;;;;;;;23.18;59.56;101911.81;5063584;28;19924;-51
2021/08/11 08:57:41;;;;;;;;;;;;;;;23.29;59.80;101908.88;5060372;28;20414;-49
2021/08/11 09:00:08;;;;;;;;;;;;;;;23.33;59.36;101909.41;5058504;28;19983;-50
2021/08/11 09:02:38;;;;;;;;;;;;;;;23.61;58.63;101904.69;5061256;28;20388;-51
2021/08/11 09:05:06;;;;;;;;;;;;;;;23.57;58.42;101897.97;5060564;28;20319;-47
2021/08/11 09:07:32;;;;;;;;;;;;;;;23.52;59.08;101889.56;5073825;28;19994;-50
2021/08/11 09:10:11;;;;;;;;;;;;;;;23.65;59.24;101896.31;5071028;28;20380;-49
2021/08/11 09:13:07;;;;;;;;;;;;;;;23.48;58.48;101900.75;5053124;28;20386;-52
2021/08/11 09:15:36;;;;;;;;;;;;;;;23.40;60.20;101899.72;5053934;28;19931;-48
2021/08/11 09:18:22;;;;;;;;;;;;;;;23.41;59.43;101903.22;5036270;28;19932;-52
2021/08/11 09:20:51;;;;;;;;;;;;;;;23.35;60.51;101914.63;5054348;28;19924;-52
2021/08/11 09:23:38;;;;;;;;;;;;;;;23.03;59.74;101911.53;5025994;28;19924;-51
2021/08/11 09:26:14;;;;;;;;;;;;;;;22.88;60.95;101907.72;5056130;28;19929;-49
2021/08/11 09:28:41;;;;;;;;;;;;;;;22.69;61.40;101914.94;5074039;28;19924;-51
2021/08/11 09:31:28;;;;;;;;;;;;;;;23.14;61.45;101913.16;5055696;28;20421;-52
2021/08/11 09:33:56;;;;;;;;;;;;;;;23.34;60.08;101913.78;5055716;28;20383;-51
2021/08/11 09:36:22;;;;;;;;;;;;;;;23.35;60.02;101918.13;5073411;28;20321;-49
2021/08/11 09:38:53;;;;;;;;;;;;;;;23.66;60.62;101909.56;5035986;28;19925;-52
2021/08/11 09:41:19;;;;;;;;;;;;;;;24.09;59.35;101907.75;5071600;28;19978;-51
2021/08/11 09:43:46;;;;;;;;;;;;;;;24.29;58.84;101904.78;5073548;28;19978;-57
2021/08/11 09:46:13;;;;;;;;;;;;;;;24.53;57.50;101908.50;5055373;28;19968;-58
2021/08/11 09:48:41;;;;;;;;;;;;;;;24.79;57.71;101906.53;5052983;28;19924;-58
2021/08/11 09:51:10;;;;;;;;;;;;;;;24.80;54.86;101907.34;5052712;28;19997;-58
2021/08/11 09:53:38;;;;;;;;;;;;;;;24.86;54.00;101905.88;5072697;28;19970;-50
2021/08/11 09:56:05;;;;;;;;;;;;;;;24.88;55.14;101909.22;5071942;28;19940;-48
2021/08/11 09:58:33;;;;;;;;;;;;;;;25.32;54.58;101903.44;5067735;28;19924;-51
2021/08/11 10:01:00;;;;;;;;;;;;;;;25.24;53.38;101900.75;5071826;28;19928;-58
2021/08/11 10:03:27;;;;;;;;;;;;;;;25.42;53.49;101901.41;5038735;28;20327;-59
2021/08/11 10:05:54;;;;;;;;;;;;;;;25.22;53.94;101903.59;5065820;28;19924;-59
2021/08/11 10:08:28;;;;;;;;;;;;;;;25.68;52.77;101904.88;5078982;28;19993;-58
2021/08/11 10:10:54;;;;;;;;;;;;;;;25.73;51.35;101908.72;5052811;28;19924;-58
2021/08/11 10:13:21;;;;;;;;;;;;;;;25.93;51.31;101913.66;5071945;28;19924;-59
2021/08/11 10:15:48;;;;;;;;;;;;;;;26.47;51.39;101913.69;5072934;28;19974;-58
2021/08/11 10:18:22;;;;;;;;;;;;;;;26.66;51.03;101923.16;5052349;28;19928;-50
2021/08/11 10:20:50;;;;;;;;;;;;;;;26.94;49.00;101919.94;5053118;28;20318;-46
2021/08/11 10:23:18;;;;;;;;;;;;;;;26.97;48.34;101922.25;5055257;28;19967;-51
2021/08/11 10:25:45;;;;;;;;;;;;;;;26.84;48.24;101916.63;5055194;28;19932;-52
2021/08/11 10:28:11;;;;;;;;;;;;;;;26.92;49.13;101921.13;5065009;28;19925;-50
2021/08/11 10:30:42;;;;;;;;;;;;;;;27.14;48.00;101919.41;5055049;28;20446;-52
2021/08/11 10:33:09;;;;;;;;;;;;;;;26.91;48.39;101924.84;5070259;28;19924;-50
2021/08/11 10:35:37;;;;;;;;;;;;;;;27.19;47.36;101917.00;5057353;28;19935;-47
2021/08/11 10:38:03;;;;;;;;;;;;;;;27.35;46.27;101913.28;5051347;28;19925;-49
2021/08/11 10:40:30;;;;;;;;;;;;;;;27.28;46.06;101918.59;5053662;28;19951;-51
2021/08/11 10:42:57;;;;;;;;;;;;;;;26.87;45.82;101928.94;5071581;28;20371;-47
2021/08/11 10:45:24;;;;;;;;;;;;;;;27.15;44.91;101913.81;5050137;28;19932;-46
2021/08/11 10:47:51;;;;;;;;;;;;;;;27.55;45.49;101918.97;5069566;28;20414;-48
2021/08/11 10:50:17;;;;;;;;;;;;;;;27.88;44.55;101920.44;5068013;28;20369;-50
2021/08/11 10:52:44;;;;;;;;;;;;;;;27.72;43.45;101918.78;5051587;28;20409;-52
2021/08/11 10:55:11;;;;;;;;;;;;;;;28.18;42.31;101921.22;5070916;28;19925;-51
2021/08/11 10:57:39;;;;;;;;;;;;;;;28.52;44.97;101924.28;5068725;28;20290;-51
2021/08/11 11:00:21;;;;;;;;;;;;;;;28.81;42.06;101921.47;5073979;28;19950;-46
2021/08/11 11:02:49;;;;;;;;;;;;;;;28.55;43.03;101921.19;5074843;28;19932;-46
2021/08/11 11:05:20;;;;;;;;;;;;;;;28.62;43.36;101919.41;5075129;28;20022;-52
2021/08/11 11:08:05;;;;;;;;;;;;;;;28.66;43.06;101915.31;5070529;28;19928;-49
2021/08/11 11:10:32;;;;;;;;;;;;;;;28.83;40.73;101922.09;5070309;28;19938;-49
2021/08/11 11:13:08;;;;;;;;;;;;;;;28.84;40.05;101917.53;5073410;28;19931;-48
2021/08/11 11:15:41;;;;;;;;;;;;;;;28.74;41.93;101912.44;5056948;28;19932;-48
2021/08/11 11:18:11;;;;;;;;;;;;;;;29.22;41.57;101905.47;5074753;28;19931;-47
2021/08/11 11:20:37;;;;;;;;;;;;;;;29.50;40.35;101906.31;5054152;28;19978;-50
2021/08/11 11:23:05;;;;;;;;;;;;;;;29.51;39.54;101905.28;5052128;28;19931;-50
2021/08/11 11:25:50;;;;;;;;;;;;;;;29.59;38.93;101908.88;5054227;28;19924;-50
2021/08/11 11:28:17;;;;;;;;;;;;;;;29.62;40.00;101909.28;5071983;28;20002;-49
2021/08/11 11:30:44;;;;;;;;;;;;;;;29.42;38.15;101908.34;5056466;28;19939;-50
2021/08/11 11:33:17;;;;;;;;;;;;;;;29.60;39.42;101905.94;5054438;28;19929;-50
2021/08/11 11:35:44;;;;;;;;;;;;;;;29.34;38.40;101898.50;5071496;28;19929;-50
2021/08/11 11:38:12;;;;;;;;;;;;;;;29.45;39.73;101906.09;5054709;28;20294;-50
2021/08/11 11:41:11;;;;;;;;;;;;;;;29.34;40.93;101906.63;5056182;28;19950;-51
2021/08/11 11:43:37;;;;;;;;;;;;;;;28.87;39.27;101905.47;5016233;28;19932;-48
2021/08/11 11:46:04;;;;;;;;;;;;;;;29.01;40.67;101901.81;5056280;28;19970;-50
2021/08/11 11:48:30;;;;;;;;;;;;;;;29.31;39.86;101898.91;5073338;28;19970;-49
2021/08/11 11:51:01;;;;;;;;;;;;;;;29.16;40.58;101909.81;5055814;28;20357;-52
2021/08/11 11:53:29;;;;;;;;;;;;;;;29.28;39.73;101896.59;5073603;28;19928;-46
2021/08/11 11:55:56;;;;;;;;;;;;;;;29.73;38.92;101905.16;5073435;28;19951;-52
2021/08/11 11:58:26;;;;;;;;;;;;;;;29.47;39.40;101909.41;5073207;28;19933;-50
2021/08/11 12:01:04;;;;;;;;;;;;;;;29.34;39.23;101909.34;5055708;28;20391;-52
2021/08/11 12:03:38;;;;;;;;;;;;;;;29.28;40.73;101902.84;5071875;28;20023;-49
2021/08/11 12:06:06;;;;;;;;;;;;;;;29.81;39.67;101923.13;5073723;28;19924;-51
2021/08/11 12:08:33;;;;;;;;;;;;;;;29.71;38.62;101909.97;5055897;28;20349;-51
2021/08/11 12:11:03;;;;;;;;;;;;;;;29.65;39.63;101913.47;5071931;28;19960;-58
2021/08/11 12:13:37;;;;;;;;;;;;;;;29.03;40.68;101918.72;5055855;28;19933;-58
2021/08/11 12:16:04;;;;;;;;;;;;;;;28.90;40.88;101913.19;5072149;28;19979;-58
2021/08/11 12:18:31;;;;;;;;;;;;;;;29.00;40.68;101913.66;5073244;28;20310;-58
2021/08/11 12:21:01;;;;;;;;;;;;;;;28.80;40.62;101913.53;5073251;28;19982;-58
2021/08/11 12:23:29;;;;;;;;;;;;;;;28.55;39.78;101908.50;5073441;28;19937;-58
2021/08/11 12:25:56;;;;;;;;;;;;;;;28.72;40.19;101909.09;5055503;28;19924;-51
2021/08/11 12:28:34;;;;;;;;;;;;;;;28.75;41.37;101914.09;5073133;28;20194;-51
2021/08/11 12:31:03;;;;;;;;;;;;;;;28.90;40.67;101916.72;5054084;28;19925;-49
2021/08/11 12:33:30;;;;;;;;;;;;;;;28.90;40.80;101905.06;5055040;28;19947;-51
2021/08/11 12:35:57;;;;;;;;;;;;;;;28.79;40.38;101899.16;5055213;28;19933;-46
2021/08/11 12:38:42;;;;;;;;;;;;;;;29.38;40.93;101902.47;5073153;28;19928;-51